Time;durP1;ratioP1;P1;durP2;ratioP2;P2;SDS_P1;SDS_P2;PMS_P1;PMS_P2;Temp;Humidity;BMP_temperature;BMP_pressure;BME280_temperature;BME280_humidity;BME280_pressure;Samples;Min_cycle;Max_cycle;Signal;HPM_P1;HPM_P2
2022/11/18 00:00:20;;;;;;;20.12;10.90;;;27.00;95.20;;;;;;1707060;83;21125;-77
2022/11/18 00:02:51;;;;;;;17.80;9.98;;;26.90;95.10;;;;;;1710130;83;21692;-77
2022/11/18 00:05:22;;;;;;;14.45;9.25;;;27.00;95.00;;;;;;1711886;83;21260;-77
2022/11/18 00:07:53;;;;;;;14.58;8.85;;;27.00;95.00;;;;;;1724564;83;21287;-77
2022/11/18 00:10:25;;;;;;;18.55;8.98;;;27.00;94.70;;;;;;1715830;82;21117;-77
2022/11/18 00:15:50;;;;;;;19.98;12.28;;;27.10;94.40;;;;;;1733390;81;21144;-77
2022/11/18 00:18:27;;;;;;;16.62;9.23;;;27.10;94.30;;;;;;1721565;81;21140;-77
2022/11/18 00:21:12;;;;;;;14.45;8.03;;;27.20;94.10;;;;;;1793630;79;21124;-77
2022/11/18 00:23:43;;;;;;;12.23;8.20;;;27.30;93.90;;;;;;1780496;78;21143;-77
2022/11/18 00:26:15;;;;;;;15.83;8.28;;;27.30;93.60;;;;;;1791784;78;21701;-77
2022/11/18 00:28:46;;;;;;;11.97;8.23;;;27.40;93.60;;;;;;1788431;78;21143;-77
2022/11/18 00:31:18;;;;;;;12.75;7.20;;;27.40;93.50;;;;;;1790679;78;21175;-77
2022/11/18 00:33:50;;;;;;;13.38;7.30;;;27.50;93.30;;;;;;1793185;78;22295;-76
2022/11/18 00:36:21;;;;;;;17.17;8.25;;;27.50;93.20;;;;;;1789369;79;21665;-77
2022/11/18 00:38:52;;;;;;;17.02;7.78;;;27.50;93.20;;;;;;1786858;78;21053;-75
2022/11/18 00:41:23;;;;;;;17.92;9.00;;;27.60;93.30;;;;;;1794821;78;21187;-77
2022/11/18 00:43:54;;;;;;;15.78;8.10;;;27.60;93.40;;;;;;1786993;78;21132;-78
2022/11/18 00:46:25;;;;;;;16.52;9.30;;;27.60;93.30;;;;;;1787355;78;21159;-77
2022/11/18 00:49:02;;;;;;;17.05;9.83;;;27.60;93.40;;;;;;1787345;78;21214;-78
2022/11/18 00:51:30;;;;;;;15.80;9.48;;;27.70;93.50;;;;;;1797779;78;21143;-76
2022/11/18 00:54:01;;;;;;;15.80;8.38;;;27.70;93.40;;;;;;1795540;78;21132;-77
2022/11/18 00:56:32;;;;;;;20.75;9.73;;;27.70;93.30;;;;;;1793026;78;21159;-78
2022/11/18 00:59:04;;;;;;;13.15;8.48;;;27.80;93.30;;;;;;1800158;78;21643;-78
2022/11/18 01:01:35;;;;;;;13.50;8.00;;;27.80;93.30;;;;;;1798867;78;21253;-79
2022/11/18 01:04:07;;;;;;;15.90;8.83;;;27.90;93.30;;;;;;1726121;81;21214;-78
2022/11/18 01:06:38;;;;;;;19.77;9.18;;;27.90;93.10;;;;;;1791013;78;21155;-77
2022/11/18 01:09:09;;;;;;;15.48;7.72;;;28.00;93.20;;;;;;1726856;82;21254;-77
2022/11/18 01:14:30;;;;;;;13.55;7.90;;;28.10;92.90;;;;;;1807113;78;21564;-78
2022/11/18 01:17:01;;;;;;;14.87;6.83;;;28.20;92.90;;;;;;1787022;78;21171;-77
2022/11/18 01:19:38;;;;;;;13.70;7.40;;;28.20;92.90;;;;;;1798826;78;21122;-78
2022/11/18 01:22:09;;;;;;;14.23;6.80;;;28.20;92.80;;;;;;1801665;79;21191;-78
2022/11/18 01:24:40;;;;;;;16.95;8.63;;;28.30;92.70;;;;;;1731537;81;21278;-77
2022/11/18 01:29:50;;;;;;;15.18;7.75;;;28.30;93.00;;;;;;1784919;78;21147;-79
2022/11/18 01:32:32;;;;;;;43.17;9.33;;;28.30;93.10;;;;;;1798404;78;21182;-76
2022/11/18 01:35:03;;;;;;;;;;;28.30;93.10;;;;;;1783861;79;21225;-78
2022/11/18 01:37:32;;;;;;;10.78;5.78;;;28.40;93.00;;;;;;1790883;78;20434;-79
2022/11/18 01:40:05;;;;;;;11.73;6.03;;;28.40;92.80;;;;;;1794380;79;21148;-79
2022/11/18 01:42:36;;;;;;;14.87;6.08;;;28.40;92.90;;;;;;1810390;78;21096;-76
2022/11/18 01:45:22;;;;;;;7.35;4.80;;;28.40;92.70;;;;;;1806578;78;21179;-78
2022/11/18 01:48:52;;;;;;;7.55;4.53;;;28.40;92.00;;;;;;1793672;79;21207;-79
2022/11/18 01:51:10;;;;;;;10.28;4.92;;;28.40;92.10;;;;;;1747915;80;21242;-79
2022/11/18 01:53:43;;;;;;;8.05;4.75;;;28.40;91.70;;;;;;1746710;80;21231;-77
2022/11/18 01:56:26;;;;;;;;;;;;;;;;;;;;;
2022/11/18 01:59:14;;;;;;;10.53;6.00;;;28.50;91.70;;;;;;1772198;78;21236;-76
2022/11/18 02:01:46;;;;;;;8.43;5.08;;;28.50;91.70;;;;;;1792604;78;21160;-75
2022/11/18 02:04:18;;;;;;;12.78;5.50;;;28.50;91.60;;;;;;1795743;78;21174;-77
2022/11/18 02:06:49;;;;;;;8.28;4.10;;;28.50;91.50;;;;;;1793516;78;21187;-76
2022/11/18 02:09:20;;;;;;;11.15;4.28;;;28.60;91.10;;;;;;1793824;79;21179;-76
2022/11/18 02:11:56;;;;;;;6.58;4.00;;;28.60;90.90;;;;;;1797112;78;21186;-74
2022/11/18 02:14:40;;;;;;;10.03;4.03;;;28.70;90.90;;;;;;1795505;79;21195;-73
2022/11/18 02:17:28;;;;;;;10.82;4.22;;;28.80;90.90;;;;;;1789131;79;21147;-75
2022/11/18 02:20:30;;;;;;;9.80;4.08;;;28.80;90.40;;;;;;1794682;78;21139;-74
2022/11/18 02:23:35;;;;;;;12.00;4.62;;;28.80;90.20;;;;;;1792462;79;21576;-75
2022/11/18 02:26:25;;;;;;;8.43;3.60;;;28.90;90.00;;;;;;1797667;78;21168;-76
2022/11/18 02:29:11;;;;;;;8.35;3.05;;;28.90;90.00;;;;;;1789033;79;21172;-76
2022/11/18 02:31:54;;;;;;;6.58;2.92;;;29.00;89.90;;;;;;1794612;79;21179;-76
2022/11/18 02:38:13;;;;;;;6.95;2.98;;;29.00;89.70;;;;;;1777664;79;21282;-76
2022/11/18 02:40:49;;;;;;;7.35;3.98;;;29.10;89.50;;;;;;1799127;78;21628;-75
2022/11/18 02:43:31;;;;;;;9.00;3.62;;;29.20;89.40;;;;;;1786983;79;21131;-74
2022/11/18 02:46:10;;;;;;;6.80;3.33;;;29.20;89.50;;;;;;1812591;78;21209;-79
2022/11/18 02:48:44;;;;;;;7.75;3.92;;;29.30;89.10;;;;;;1808692;78;21190;-76
2022/11/18 02:51:19;;;;;;;9.08;3.85;;;29.30;89.20;;;;;;1818777;78;21643;-76
2022/11/18 02:53:52;;;;;;;5.72;2.80;;;29.40;89.20;;;;;;1800977;78;21571;-75
2022/11/18 02:59:11;;;;;;;7.83;2.83;;;29.50;88.50;;;;;;1780908;79;21651;-76
2022/11/18 03:01:42;;;;;;;9.70;4.17;;;29.60;87.90;;;;;;1803592;79;21174;-78
2022/11/18 03:04:16;;;;;;;5.55;3.00;;;29.60;88.00;;;;;;1793670;79;21218;-78
2022/11/18 03:06:52;;;;;;;7.20;3.08;;;29.70;88.20;;;;;;1801297;78;21273;-75
2022/11/18 03:09:24;;;;;;;;;;;29.80;87.80;;;;;;1794816;79;21225;-75
2022/11/18 03:12:15;;;;;;;6.35;3.35;;;29.80;88.10;;;;;;1794687;79;20188;-76
2022/11/18 03:15:23;;;;;;;9.28;3.00;;;29.80;87.60;;;;;;1736402;82;21195;-76
2022/11/18 03:18:17;;;;;;;4.80;2.90;;;29.90;87.50;;;;;;1783718;78;21179;-77
2022/11/18 03:21:12;;;;;;;5.35;2.90;;;29.90;86.80;;;;;;1785662;78;21095;-76
2022/11/18 03:24:14;;;;;;;6.80;2.90;;;30.00;87.00;;;;;;1793894;79;21163;-76
2022/11/18 03:27:03;;;;;;;5.42;2.55;;;30.10;87.30;;;;;;1794322;79;21119;-76
2022/11/18 03:29:26;;;;;;;4.25;3.00;;;30.10;87.10;;;;;;1788919;79;21150;-76
2022/11/18 03:32:12;;;;;;;7.55;3.05;;;30.20;87.00;;;;;;1794492;78;21540;-75
2022/11/18 03:34:45;;;;;;;7.28;3.33;;;30.30;86.80;;;;;;1799094;79;21490;-76
2022/11/18 03:37:19;;;;;;;7.90;3.00;;;30.40;86.50;;;;;;1796551;79;21166;-76
2022/11/18 03:39:52;;;;;;;7.42;3.33;;;30.50;86.50;;;;;;1775337;81;21591;-77
2022/11/18 03:42:34;;;;;;;6.33;3.30;;;30.60;85.60;;;;;;1790502;78;21156;-76
2022/11/18 03:45:08;;;;;;;4.97;3.08;;;30.70;84.90;;;;;;1795636;78;21170;-74
2022/11/18 03:47:41;;;;;;;8.05;3.10;;;30.80;85.10;;;;;;1726013;82;21223;-77
2022/11/18 03:50:23;;;;;;;9.78;3.52;;;30.80;85.10;;;;;;1776303;79;21163;-77
2022/11/18 03:52:55;;;;;;;5.65;3.35;;;30.90;84.80;;;;;;1795315;78;21650;-76
2022/11/18 03:55:28;;;;;;;5.78;2.92;;;31.00;84.50;;;;;;1795995;79;21656;-76
2022/11/18 03:58:17;;;;;;;8.13;3.10;;;31.10;84.90;;;;;;1793912;79;21642;-77
2022/11/18 04:00:50;;;;;;;7.90;3.55;;;31.20;84.50;;;;;;1793449;79;21218;-78
2022/11/18 04:03:24;;;;;;;6.65;3.27;;;31.30;84.00;;;;;;1794814;79;21206;-76
2022/11/18 04:05:56;;;;;;;8.68;4.28;;;31.30;83.40;;;;;;1791401;78;21178;-77
2022/11/18 04:08:30;;;;;;;9.65;4.50;;;31.40;83.10;;;;;;1801372;79;21152;-76
2022/11/18 04:11:03;;;;;;;6.00;3.75;;;31.50;82.80;;;;;;1802206;79;21190;-78
2022/11/18 04:13:37;;;;;;;7.58;3.70;;;31.50;82.70;;;;;;1786199;78;22036;-75
2022/11/18 04:16:08;;;;;;;8.40;3.65;;;31.50;83.10;;;;;;1794224;78;21222;-76
2022/11/18 04:18:39;;;;;;;6.78;3.22;;;31.60;82.90;;;;;;1795371;78;21151;-76
2022/11/18 04:21:23;;;;;;;5.40;3.35;;;31.70;81.80;;;;;;1792406;79;21093;-75
2022/11/18 04:24:05;;;;;;;7.28;3.40;;;31.80;83.00;;;;;;1788879;79;21630;-76
2022/11/18 04:26:42;;;;;;;5.70;3.50;;;31.90;83.00;;;;;;1797013;78;21265;-77
2022/11/18 04:29:32;;;;;;;6.20;3.20;;;32.00;81.30;;;;;;1795393;78;21088;-78
2022/11/18 04:35:24;;;;;;;;;;;;;;;;;;;;;
2022/11/18 04:38:05;;;;;;;8.40;3.45;;;31.60;81.80;;;;;;1794834;79;21225;-75
2022/11/18 04:40:36;;;;;;;7.35;3.70;;;31.60;82.30;;;;;;1792118;79;21128;-75
2022/11/18 04:43:07;;;;;;;6.37;3.12;;;31.50;81.60;;;;;;1790575;78;21093;-75
2022/11/18 04:45:39;;;;;;;10.20;4.10;;;31.50;81.60;;;;;;1792697;79;21219;-76
2022/11/18 04:48:10;;;;;;;5.53;3.40;;;31.50;82.10;;;;;;1804636;78;21139;-76
2022/11/18 04:50:41;;;;;;;7.47;3.67;;;31.60;81.70;;;;;;1802327;79;21213;-73
2022/11/18 04:53:12;;;;;;;8.30;3.87;;;31.80;81.20;;;;;;1813588;78;21642;-75
2022/11/18 04:55:43;;;;;;;8.08;4.08;;;31.90;80.60;;;;;;1813819;78;21221;-75
2022/11/18 04:58:14;;;;;;;7.65;3.95;;;31.90;79.90;;;;;;1791242;79;21163;-75
2022/11/18 05:00:45;;;;;;;8.15;3.87;;;31.80;80.10;;;;;;1791540;79;21199;-74
2022/11/18 05:03:16;;;;;;;8.03;3.67;;;31.80;80.40;;;;;;1788788;79;21243;-75
2022/11/18 05:05:47;;;;;;;7.25;3.85;;;31.80;80.80;;;;;;1795762;79;21642;-75
2022/11/18 05:08:18;;;;;;;11.00;4.22;;;31.70;80.60;;;;;;1795459;78;21178;-75
2022/11/18 05:10:50;;;;;;;13.80;4.42;;;31.70;80.90;;;;;;1790774;79;21199;-76
2022/11/18 05:13:21;;;;;;;6.60;3.35;;;31.80;80.40;;;;;;1798998;78;21120;-77
2022/11/18 05:15:52;;;;;;;7.97;4.22;;;31.90;80.50;;;;;;1810387;78;21136;-77
2022/11/18 05:18:23;;;;;;;7.05;3.83;;;31.80;80.30;;;;;;1813797;78;21715;-77
2022/11/18 05:20:54;;;;;;;9.03;3.80;;;31.80;78.90;;;;;;1813783;77;21146;-77
2022/11/18 05:23:25;;;;;;;5.90;3.22;;;31.70;79.40;;;;;;1806180;79;21138;-77
2022/11/18 05:25:58;;;;;;;4.45;3.17;;;31.60;79.00;;;;;;1810611;79;21093;-76
2022/11/18 05:28:30;;;;;;;5.28;2.72;;;31.60;79.80;;;;;;1810322;77;21201;-76
2022/11/18 05:31:03;;;;;;;8.95;4.00;;;31.40;79.90;;;;;;1814502;77;21186;-77
2022/11/18 05:33:35;;;;;;;9.43;4.17;;;31.40;80.10;;;;;;1813251;79;21147;-77
2022/11/18 05:36:09;;;;;;;9.00;4.12;;;31.40;80.60;;;;;;1810725;77;21147;-79
2022/11/18 05:38:41;;;;;;;7.83;4.33;;;31.40;80.90;;;;;;1803254;79;21196;-77
2022/11/18 05:43:49;;;;;;;6.90;3.83;;;31.40;81.20;;;;;;1765166;77;21126;-76
2022/11/18 05:46:20;;;;;;;6.45;3.40;;;31.40;81.00;;;;;;1814150;79;21107;-76
2022/11/18 05:48:51;;;;;;;7.17;3.75;;;31.30;81.20;;;;;;1818520;77;21468;-78
2022/11/18 05:51:22;;;;;;;9.10;3.95;;;31.30;81.30;;;;;;1817881;79;21151;-77
2022/11/18 05:53:54;;;;;;;5.03;3.50;;;31.40;81.80;;;;;;1816820;79;21689;-76
2022/11/18 05:56:41;;;;;;;8.60;3.33;;;31.50;80.40;;;;;;1813713;77;21138;-76
2022/11/18 05:59:25;;;;;;;6.80;2.90;;;31.70;80.10;;;;;;1808524;77;21152;-78
2022/11/18 06:04:55;;;;;;;5.62;2.70;;;31.80;79.20;;;;;;1758907;79;21121;-77
2022/11/18 06:07:29;;;;;;;4.75;2.70;;;31.90;79.20;;;;;;1812990;77;21158;-77
2022/11/18 06:10:02;;;;;;;6.58;3.08;;;32.10;79.00;;;;;;1818422;77;21587;-77
2022/11/18 06:12:37;;;;;;;6.75;2.83;;;32.20;77.00;;;;;;1811565;77;21323;-78
2022/11/18 06:15:13;;;;;;;5.42;3.08;;;32.40;76.70;;;;;;1799528;79;21174;-77
2022/11/18 06:17:47;;;;;;;6.42;3.12;;;32.50;76.80;;;;;;1786999;79;21140;-77
2022/11/18 06:20:20;;;;;;;6.72;3.00;;;32.60;75.80;;;;;;1793228;79;21201;-78
2022/11/18 06:22:54;;;;;;;6.95;3.17;;;32.70;76.20;;;;;;1796959;78;21123;-77
2022/11/18 06:25:25;;;;;;;6.10;2.60;;;32.80;75.20;;;;;;1796841;79;21144;-77
2022/11/18 06:28:00;;;;;;;5.65;2.87;;;32.90;74.80;;;;;;1793818;79;21199;-76
2022/11/18 06:30:31;;;;;;;4.75;2.92;;;33.00;74.10;;;;;;1802260;79;21151;-78
2022/11/18 06:33:02;;;;;;;5.25;2.92;;;33.00;74.10;;;;;;1793722;79;21244;-75
2022/11/18 06:35:33;;;;;;;5.90;2.70;;;33.10;74.30;;;;;;1802629;79;21279;-76
2022/11/18 06:38:04;;;;;;;5.55;2.45;;;33.20;73.30;;;;;;1811406;78;21544;-76
2022/11/18 06:40:36;;;;;;;4.30;2.30;;;33.20;72.10;;;;;;1833158;78;21167;-76
2022/11/18 06:48:49;;;;;;;5.42;2.60;;;33.40;72.30;;;;;;1752761;82;21152;-75
2022/11/18 06:51:21;;;;;;;5.83;2.72;;;33.40;72.30;;;;;;1757620;79;21209;-76
2022/11/18 06:53:52;;;;;;;7.87;2.90;;;33.50;72.30;;;;;;1786241;79;21170;-75
2022/11/18 06:56:24;;;;;;;4.45;2.40;;;33.60;72.00;;;;;;1774809;79;21190;-76
2022/11/18 06:58:59;;;;;;;4.20;2.17;;;33.60;71.50;;;;;;1786462;78;21626;-76
2022/11/18 07:01:31;;;;;;;5.45;2.60;;;33.60;71.40;;;;;;1787543;79;21132;-75
2022/11/18 07:04:03;;;;;;;4.90;2.58;;;33.50;70.90;;;;;;1792269;78;21745;-76
2022/11/18 07:06:36;;;;;;;3.83;2.37;;;33.60;70.90;;;;;;1795013;79;21163;-76
2022/11/18 07:09:12;;;;;;;7.50;2.40;;;33.60;71.10;;;;;;1799728;79;21690;-76
2022/11/18 07:11:43;;;;;;;4.50;2.30;;;33.60;71.30;;;;;;1799767;79;21690;-77
2022/11/18 07:14:14;;;;;;;5.33;2.75;;;33.70;70.60;;;;;;1797382;78;21146;-77
2022/11/18 07:16:45;;;;;;;5.90;2.70;;;33.70;71.30;;;;;;1799106;79;21225;-77
2022/11/18 07:19:17;;;;;;;5.90;2.67;;;33.60;71.60;;;;;;1820866;78;21204;-77
2022/11/18 07:21:48;;;;;;;4.62;2.50;;;33.60;71.10;;;;;;1788367;79;21246;-77
2022/11/18 07:24:19;;;;;;;4.30;2.22;;;33.60;70.60;;;;;;1784252;79;21092;-78
2022/11/18 07:26:52;;;;;;;15.20;9.73;;;33.60;70.70;;;;;;1796196;79;21088;-78
2022/11/18 07:29:24;;;;;;;6.28;3.25;;;33.50;70.10;;;;;;1787361;79;21219;-78
2022/11/18 07:32:12;;;;;;;;;;;;;;;;;;;;;
2022/11/18 07:35:03;;;;;;;4.20;2.72;;;33.60;69.30;;;;;;1762716;78;21252;-75
2022/11/18 07:37:35;;;;;;;4.15;2.17;;;33.60;69.50;;;;;;1757862;81;21146;-76
2022/11/18 07:40:32;;;;;;;;;;;;;;;;;;;;;
2022/11/18 07:43:13;;;;;;;;;;;;;;;;;;;;;
2022/11/18 07:46:05;;;;;;;;;;;;;;;;;;;;;
2022/11/18 07:48:35;;;;;;;4.80;2.40;;;33.60;69.80;;;;;;1729721;81;21157;-76
2022/11/18 07:51:08;;;;;;;7.03;2.65;;;33.60;69.50;;;;;;1728666;82;21145;-76
2022/11/18 07:53:39;;;;;;;3.60;2.20;;;33.50;69.40;;;;;;1722594;83;21222;-76
2022/11/18 07:56:10;;;;;;;4.53;2.30;;;33.50;69.50;;;;;;1749135;82;21167;-76
2022/11/18 07:58:42;;;;;;;4.50;2.08;;;33.50;68.80;;;;;;1748639;81;21243;-76
2022/11/18 08:01:16;;;;;;;5.17;2.30;;;33.40;69.70;;;;;;1727734;81;21621;-77
2022/11/18 08:03:47;;;;;;;5.67;2.20;;;33.40;69.40;;;;;;1728717;83;21177;-76
2022/11/18 08:06:20;;;;;;;5.95;2.22;;;33.40;68.30;;;;;;1702988;83;21187;-76
2022/11/18 08:08:51;;;;;;;5.65;2.17;;;33.40;69.30;;;;;;1778516;79;21135;-76
2022/11/18 08:11:22;;;;;;;4.97;2.05;;;33.40;69.10;;;;;;1802351;78;21225;-75
2022/11/18 08:13:59;;;;;;;4.03;1.90;;;33.30;68.20;;;;;;1793300;78;21240;-76
2022/11/18 08:16:30;;;;;;;4.08;2.00;;;33.30;68.40;;;;;;1750502;79;21097;-76
2022/11/18 08:19:01;;;;;;;5.60;2.15;;;33.30;68.80;;;;;;1817644;78;21148;-75
2022/11/18 08:21:50;;;;;;;;;;;;;;;;;;;;;
2022/11/18 08:27:23;;;;;;;4.42;2.50;;;33.30;68.50;;;;;;1624016;87;21242;-76
2022/11/18 08:30:12;;;;;;;5.70;2.05;;;33.20;68.80;;;;;;1936833;72;22140;-75
2022/11/18 08:32:43;;;;;;;2.67;1.90;;;33.20;68.70;;;;;;1905090;75;21670;-75
2022/11/18 08:35:14;;;;;;;5.78;2.60;;;33.20;69.00;;;;;;1914167;75;21096;-75
2022/11/18 08:37:45;;;;;;;5.62;2.08;;;33.20;68.90;;;;;;1916221;75;21190;-75
2022/11/18 08:40:16;;;;;;;5.90;2.10;;;33.20;69.10;;;;;;1904290;75;21068;-74
2022/11/18 08:42:48;;;;;;;4.85;2.67;;;33.30;69.20;;;;;;1892968;75;21231;-77
2022/11/18 08:45:19;;;;;;;6.75;2.62;;;33.20;69.20;;;;;;1884419;75;21102;-76
2022/11/18 08:47:50;;;;;;;7.15;2.60;;;33.30;69.30;;;;;;1898370;75;21119;-77
2022/11/18 08:50:21;;;;;;;5.80;2.92;;;33.30;69.60;;;;;;1912406;75;21142;-76
2022/11/18 08:52:53;;;;;;;5.85;2.60;;;33.30;69.50;;;;;;1907862;75;21732;-77
2022/11/18 08:55:23;;;;;;;6.03;3.45;;;33.30;68.00;;;;;;1904118;75;21206;-76
2022/11/18 08:57:55;;;;;;;4.08;2.00;;;33.30;67.80;;;;;;1909903;75;21167;-75
2022/11/18 09:00:53;;;;;;;;;;;;;;;;;;;;;
2022/11/18 09:03:31;;;;;;;4.22;2.25;;;33.30;67.40;;;;;;1770630;79;21155;-76
2022/11/18 09:06:13;;;;;;;3.98;1.82;;;33.30;67.30;;;;;;1835929;77;21287;-76
2022/11/18 09:08:44;;;;;;;7.10;2.90;;;33.20;67.50;;;;;;1844613;77;21623;-75
2022/11/18 09:11:28;;;;;;;4.42;2.12;;;33.20;67.70;;;;;;1833032;77;21199;-75
2022/11/18 09:14:01;;;;;;;5.28;2.30;;;33.10;67.70;;;;;;1839154;77;21135;-76
2022/11/18 09:16:34;;;;;;;5.33;2.35;;;33.00;68.10;;;;;;1857631;77;21261;-76
2022/11/18 09:19:07;;;;;;;5.03;2.35;;;33.00;68.40;;;;;;1852832;77;21608;-76
2022/11/18 09:21:40;;;;;;;6.05;2.37;;;32.90;68.40;;;;;;1832285;78;22366;-74
2022/11/18 09:24:11;;;;;;;6.22;2.37;;;32.90;68.90;;;;;;1843226;77;21179;-75
2022/11/18 09:26:55;;;;;;;5.85;2.30;;;32.90;68.70;;;;;;1861325;77;21241;-75
2022/11/18 09:29:24;;;;;;;5.12;2.12;;;32.80;67.90;;;;;;1853741;76;21632;-76
2022/11/18 09:31:55;;;;;;;4.50;1.80;;;32.70;68.10;;;;;;1844032;78;21250;-75
2022/11/18 09:34:27;;;;;;;3.90;2.17;;;32.70;68.00;;;;;;1846220;77;21592;-75
2022/11/18 09:36:58;;;;;;;4.03;2.05;;;32.70;68.40;;;;;;1856283;77;22226;-74
2022/11/18 09:40:02;;;;;;;;;;;;;;;;;;;;;
2022/11/18 09:43:06;;;;;;;4.65;2.30;;;32.60;68.40;;;;;;1856197;74;21248;-75
2022/11/18 09:45:39;;;;;;;4.50;2.00;;;32.60;68.60;;;;;;1899583;75;22365;-75
2022/11/18 09:48:19;;;;;;;4.58;2.15;;;32.60;68.70;;;;;;1899876;75;21222;-75
2022/11/18 09:50:54;;;;;;;5.78;2.33;;;32.60;68.40;;;;;;1858314;76;21179;-74
2022/11/18 09:53:26;;;;;;;6.45;2.37;;;32.60;68.80;;;;;;1896151;75;21616;-76
2022/11/18 09:55:59;;;;;;;3.37;2.25;;;32.60;68.80;;;;;;1891952;75;21661;-74
2022/11/18 09:58:35;;;;;;;4.60;2.35;;;32.60;69.00;;;;;;1897003;75;21529;-74
2022/11/18 10:01:16;;;;;;;4.83;2.00;;;32.50;69.30;;;;;;1897316;75;21726;-75
2022/11/18 10:04:05;;;;;;;4.87;2.40;;;32.50;69.20;;;;;;1901998;75;21724;-77
2022/11/18 10:06:39;;;;;;;7.78;2.85;;;32.50;69.50;;;;;;1896834;75;21119;-76
2022/11/18 10:09:13;;;;;;;7.40;2.55;;;32.40;69.60;;;;;;1895748;75;21175;-76
2022/11/18 10:12:03;;;;;;;6.08;2.70;;;32.30;69.70;;;;;;1837777;76;21181;-76
2022/11/18 10:14:43;;;;;;;6.95;3.08;;;32.30;70.20;;;;;;1899977;75;21124;-78
2022/11/18 10:17:45;;;;;;;7.33;3.02;;;32.30;70.50;;;;;;1897308;75;21525;-76
2022/11/18 10:20:30;;;;;;;7.97;2.83;;;32.20;70.60;;;;;;1862912;74;21110;-77
2022/11/18 10:23:16;;;;;;;7.45;2.92;;;32.20;70.60;;;;;;1894369;75;21568;-77
2022/11/18 10:25:49;;;;;;;5.67;3.08;;;32.20;70.70;;;;;;1900057;75;21677;-77
2022/11/18 10:28:29;;;;;;;6.87;3.22;;;32.20;70.90;;;;;;1895419;74;21214;-76
2022/11/18 10:34:43;;;;;;;8.43;3.70;;;32.10;71.20;;;;;;1842929;74;21538;-77
2022/11/18 10:37:39;;;;;;;;;;;;;;;;;;;;;
2022/11/18 10:40:27;;;;;;;9.60;3.30;;;32.00;71.60;;;;;;1900961;74;21068;-79
2022/11/18 10:42:59;;;;;;;9.73;3.60;;;32.00;71.90;;;;;;1916016;74;21100;-79
2022/11/18 10:45:45;;;;;;;8.18;3.55;;;32.00;71.70;;;;;;1894503;74;21729;-82
2022/11/18 10:49:28;;;;;;;;;;;;;;;;;;;;;
2022/11/18 10:52:13;;;;;;;9.55;4.40;;;32.00;71.90;;;;;;1694592;82;21161;-82
2022/11/18 10:54:44;;;;;;;9.95;3.80;;;31.90;72.30;;;;;;1731336;82;21301;-82
2022/11/18 11:00:55;;;;;;;15.40;6.12;;;31.90;72.50;;;;;;1683575;84;21218;-82
2022/11/18 11:03:30;;;;;;;9.95;4.35;;;31.90;72.70;;;;;;1699590;81;21213;-80
2022/11/18 11:06:48;;;;;;;9.65;6.28;;;31.90;72.70;;;;;;1767807;80;21295;-81
2022/11/18 11:09:30;;;;;;;23.00;8.38;;;31.90;72.60;;;;;;1751110;81;21298;-82
2022/11/18 11:12:08;;;;;;;13.00;5.83;;;31.80;72.80;;;;;;1772286;80;21185;-83
2022/11/18 11:14:59;;;;;;;12.28;5.90;;;31.80;72.90;;;;;;1757355;80;21182;-82
2022/11/18 11:17:38;;;;;;;8.53;4.65;;;31.80;73.20;;;;;;1776000;80;21225;-82
2022/11/18 11:20:21;;;;;;;11.05;4.50;;;31.80;73.40;;;;;;1771837;80;22045;-82
2022/11/18 11:22:56;;;;;;;13.65;6.25;;;31.80;73.40;;;;;;1784656;80;21711;-80
2022/11/18 11:25:50;;;;;;;9.98;5.50;;;31.80;73.80;;;;;;1853350;76;21212;-81
2022/11/18 11:28:50;;;;;;;17.00;8.53;;;31.80;73.90;;;;;;1852576;76;21248;-81
2022/11/18 11:31:24;;;;;;;16.70;9.30;;;31.70;74.10;;;;;;1862277;76;21682;-81
2022/11/18 11:34:14;;;;;;;17.37;8.80;;;31.70;74.50;;;;;;1862679;76;21152;-81
2022/11/18 11:37:15;;;;;;;14.23;7.95;;;31.70;74.70;;;;;;1848264;76;21722;-82
2022/11/18 11:40:10;;;;;;;16.15;7.40;;;31.60;74.60;;;;;;1854894;77;21454;-82
2022/11/18 11:46:08;;;;;;;11.20;5.60;;;31.60;74.40;;;;;;1827383;77;21165;-82
2022/11/18 11:49:08;;;;;;;13.83;5.57;;;31.60;74.20;;;;;;1857530;76;21131;-83
2022/11/18 11:52:16;;;;;;;9.18;5.28;;;31.60;74.30;;;;;;1840142;76;21119;-82
2022/11/18 11:54:55;;;;;;;11.73;5.95;;;31.60;74.40;;;;;;1856524;76;21787;-82
2022/11/18 11:57:50;;;;;;;11.15;5.58;;;31.50;74.50;;;;;;1852480;76;21241;-82
2022/11/18 12:00:27;;;;;;;10.53;5.65;;;31.50;74.60;;;;;;1850224;76;21100;-82
2022/11/18 12:03:04;;;;;;;14.05;5.37;;;31.50;74.60;;;;;;1851274;76;21120;-82
2022/11/18 12:05:35;;;;;;;;;;;31.50;74.70;;;;;;1861777;76;21159;-82
2022/11/18 12:08:19;;;;;;;14.28;5.28;;;31.50;75.10;;;;;;1858799;76;20206;-83
2022/11/18 12:11:19;;;;;;;9.83;5.20;;;31.40;75.30;;;;;;1856906;76;21640;-82
2022/11/18 12:14:13;;;;;;;10.53;5.60;;;31.40;75.30;;;;;;1856846;76;21081;-81
2022/11/18 12:16:53;;;;;;;11.78;5.35;;;31.50;75.50;;;;;;1851573;76;21627;-81
2022/11/18 12:23:14;;;;;;;11.80;5.60;;;31.40;75.80;;;;;;1901378;74;21225;-81
2022/11/18 12:25:55;;;;;;;12.28;5.80;;;31.40;76.00;;;;;;1904379;74;21131;-82
2022/11/18 12:28:37;;;;;;;12.03;5.45;;;31.40;76.10;;;;;;1906788;74;21174;-82
2022/11/18 12:31:22;;;;;;;16.20;9.28;;;31.40;76.20;;;;;;1902298;74;21096;-79
2022/11/18 12:34:00;;;;;;;13.03;5.75;;;31.40;76.20;;;;;;1876793;75;21127;-80
2022/11/18 12:37:11;;;;;;;;;;;;;;;;;;;;;
2022/11/18 12:39:37;;;;;;;13.80;5.50;;;31.30;76.50;;;;;;1877950;75;21129;-90
2022/11/18 12:45:45;;;;;;;11.57;5.30;;;31.30;76.70;;;;;;1888041;75;21158;-91
2022/11/18 12:48:40;;;;;;;12.73;5.95;;;31.40;76.90;;;;;;1878687;74;21068;-91
2022/11/18 12:54:37;;;;;;;12.78;6.45;;;31.30;77.00;;;;;;1882643;74;21124;-92
2022/11/18 12:57:22;;;;;;;15.25;6.42;;;31.30;77.20;;;;;;1834827;77;21151;-89
2022/11/18 13:00:18;;;;;;;9.03;5.65;;;31.20;77.20;;;;;;1868823;75;21191;-92
2022/11/18 13:03:04;;;;;;;9.25;6.20;;;31.20;77.20;;;;;;1891368;75;21200;-90
2022/11/18 13:05:44;;;;;;;12.28;6.00;;;31.20;77.40;;;;;;1887570;75;21214;-93
2022/11/18 13:12:31;;;;;;;12.75;7.35;;;31.20;77.60;;;;;;1844389;76;21195;-90
2022/11/18 13:24:58;;;;;;;14.35;7.28;;;31.10;78.30;;;;;;1804752;78;21227;-92
2022/11/18 13:27:43;;;;;;;16.70;8.60;;;31.00;78.40;;;;;;1902350;73;21072;-90
2022/11/18 13:30:15;;;;;;;14.47;8.00;;;31.00;78.60;;;;;;1918437;73;21159;-91
2022/11/18 13:32:49;;;;;;;16.70;8.13;;;30.90;78.60;;;;;;1926736;73;21131;-90
2022/11/18 13:35:26;;;;;;;15.83;7.80;;;31.00;78.80;;;;;;1908661;75;21175;-88
2022/11/18 13:37:59;;;;;;;15.15;7.80;;;31.00;78.90;;;;;;1918387;73;21226;-89
2022/11/18 13:40:33;;;;;;;14.68;8.50;;;31.00;78.90;;;;;;1893670;75;21085;-88
2022/11/18 13:43:07;;;;;;;15.63;8.27;;;31.00;78.90;;;;;;1907908;75;21209;-90
2022/11/18 13:45:39;;;;;;;14.98;7.67;;;30.90;78.90;;;;;;1918842;74;21112;-89
2022/11/18 13:48:14;;;;;;;14.28;7.80;;;30.90;79.20;;;;;;1862589;77;21100;-91
2022/11/18 13:50:53;;;;;;;15.05;7.97;;;30.90;79.20;;;;;;1914224;73;21236;-90
2022/11/18 13:53:29;;;;;;;14.47;8.43;;;30.90;79.30;;;;;;1920126;73;21165;-90
2022/11/18 13:56:07;;;;;;;14.70;7.33;;;30.90;79.10;;;;;;1915080;73;21557;-90
2022/11/18 13:58:40;;;;;;;10.85;6.95;;;30.90;79.00;;;;;;1914797;73;21653;-86
2022/11/18 14:01:29;;;;;;;13.30;7.28;;;30.90;79.00;;;;;;1914763;74;21161;-88
2022/11/18 14:04:04;;;;;;;15.00;7.10;;;30.90;79.00;;;;;;1910927;74;21160;-88
2022/11/18 14:06:42;;;;;;;13.10;7.95;;;30.90;79.00;;;;;;1906418;75;21111;-91
2022/11/18 14:10:02;;;;;;;12.07;7.67;;;30.90;79.40;;;;;;1905220;75;21136;-90
2022/11/18 14:19:27;;;;;;;15.50;8.45;;;30.90;79.90;;;;;;1778392;79;21362;-90
2022/11/18 14:22:23;;;;;;;14.30;7.35;;;30.80;80.10;;;;;;1717994;81;21173;-90
2022/11/18 14:24:54;;;;;;;;;;;30.80;79.80;;;;;;1784701;80;21225;-89
2022/11/18 14:27:42;;;;;;;18.77;7.58;;;30.80;79.50;;;;;;1751582;80;20206;-89
2022/11/18 14:30:58;;;;;;;15.10;8.05;;;30.80;79.80;;;;;;1778825;80;21598;-91
2022/11/18 14:34:06;;;;;;;22.55;8.73;;;30.80;79.90;;;;;;1750878;81;21666;-90
2022/11/18 14:36:37;;;;;;;14.13;7.72;;;30.70;80.20;;;;;;1781748;79;21254;-90
2022/11/18 14:39:31;;;;;;;16.82;7.53;;;30.70;80.60;;;;;;1787159;80;21163;-90
2022/11/18 14:42:04;;;;;;;16.67;7.75;;;30.60;80.80;;;;;;1778988;80;21127;-90
2022/11/18 14:44:35;;;;;;;12.28;7.80;;;30.60;81.10;;;;;;1814058;78;21144;-90
2022/11/18 14:47:08;;;;;;;13.65;7.67;;;30.60;81.30;;;;;;1917392;73;21048;-89
2022/11/18 14:49:39;;;;;;;16.95;7.67;;;30.50;81.80;;;;;;1911180;75;21112;-90
2022/11/18 14:52:10;;;;;;;19.62;12.10;;;30.40;82.00;;;;;;1907588;75;21065;-88
2022/11/18 14:57:55;;;;;;;31.25;17.35;;;30.30;83.70;;;;;;1846521;76;21238;-90
2022/11/18 15:00:53;;;;;;;22.93;13.93;;;30.30;84.60;;;;;;1905981;74;21226;-91
2022/11/18 15:03:24;;;;;;;21.12;13.32;;;30.20;85.10;;;;;;1902159;75;21201;-89
2022/11/18 15:05:55;;;;;;;29.57;13.83;;;30.10;85.20;;;;;;1914951;73;21633;-91
2022/11/18 15:08:26;;;;;;;28.73;14.85;;;30.10;85.60;;;;;;1905832;75;21104;-87
2022/11/18 15:10:57;;;;;;;22.82;13.95;;;30.10;85.90;;;;;;1916570;74;21139;-88